sensor_id;sensor_type;location;lat;lon;timestamp;P1;durP1;ratioP1;P2;durP2;ratioP2
3259;SDS011;22469;48.150;14.004;2023-03-25T00:00:13;1.40;;;1.40;;
3259;SDS011;22469;48.150;14.004;2023-03-25T00:02:45;1.23;;;1.23;;
3259;SDS011;22469;48.150;14.004;2023-03-25T00:05:16;1.10;;;1.10;;
3259;SDS011;22469;48.150;14.004;2023-03-25T00:07:47;1.13;;;1.13;;
3259;SDS011;22469;48.150;14.004;2023-03-25T00:10:17;1.00;;;1.00;;
3259;SDS011;22469;48.150;14.004;2023-03-25T00:12:45;1.03;;;1.03;;
3259;SDS011;22469;48.150;14.004;2023-03-25T00:15:12;1.23;;;1.23;;
3259;SDS011;22469;48.150;14.004;2023-03-25T00:17:42;1.70;;;1.13;;
3259;SDS011;22469;48.150;14.004;2023-03-25T00:20:10;1.20;;;1.20;;
3259;SDS011;22469;48.150;14.004;2023-03-25T00:22:39;1.27;;;1.27;;
3259;SDS011;22469;48.150;14.004;2023-03-25T00:25:11;0.97;;;0.97;;
3259;SDS011;22469;48.150;14.004;2023-03-25T00:27:46;1.10;;;1.10;;
3259;SDS011;22469;48.150;14.004;2023-03-25T00:30:14;1.33;;;1.10;;
3259;SDS011;22469;48.150;14.004;2023-03-25T00:32:43;1.20;;;1.20;;
3259;SDS011;22469;48.150;14.004;2023-03-25T00:35:15;1.10;;;1.10;;
3259;SDS011;22469;48.150;14.004;2023-03-25T00:37:49;1.17;;;1.17;;
3259;SDS011;22469;48.150;14.004;2023-03-25T00:40:26;0.83;;;0.83;;
3259;SDS011;22469;48.150;14.004;2023-03-25T00:43:02;1.20;;;1.10;;
3259;SDS011;22469;48.150;14.004;2023-03-25T00:45:31;1.40;;;1.30;;
3259;SDS011;22469;48.150;14.004;2023-03-25T00:47:59;1.30;;;1.00;;
3259;SDS011;22469;48.150;14.004;2023-03-25T00:50:26;1.43;;;1.33;;
3259;SDS011;22469;48.150;14.004;2023-03-25T00:52:53;1.00;;;1.00;;
3259;SDS011;22469;48.150;14.004;2023-03-25T00:55:20;1.00;;;1.00;;
3259;SDS011;22469;48.150;14.004;2023-03-25T00:57:47;1.10;;;1.10;;
3259;SDS011;22469;48.150;14.004;2023-03-25T01:00:15;1.40;;;1.30;;
3259;SDS011;22469;48.150;14.004;2023-03-25T01:02:44;1.63;;;1.27;;
3259;SDS011;22469;48.150;14.004;2023-03-25T01:05:14;1.33;;;1.23;;
3259;SDS011;22469;48.150;14.004;2023-03-25T01:07:42;1.40;;;1.30;;
3259;SDS011;22469;48.150;14.004;2023-03-25T01:10:09;1.43;;;1.33;;
3259;SDS011;22469;48.150;14.004;2023-03-25T01:12:37;1.43;;;1.20;;
3259;SDS011;22469;48.150;14.004;2023-03-25T01:15:04;1.30;;;1.20;;
3259;SDS011;22469;48.150;14.004;2023-03-25T01:17:31;1.47;;;1.40;;
3259;SDS011;22469;48.150;14.004;2023-03-25T01:19:58;2.80;;;1.20;;
3259;SDS011;22469;48.150;14.004;2023-03-25T01:22:26;1.40;;;1.07;;
3259;SDS011;22469;48.150;14.004;2023-03-25T01:24:53;1.47;;;1.37;;
3259;SDS011;22469;48.150;14.004;2023-03-25T01:27:20;1.53;;;1.10;;
3259;SDS011;22469;48.150;14.004;2023-03-25T01:29:49;2.30;;;2.20;;
3259;SDS011;22469;48.150;14.004;2023-03-25T01:32:16;1.23;;;1.13;;
3259;SDS011;22469;48.150;14.004;2023-03-25T01:34:43;2.57;;;1.80;;
3259;SDS011;22469;48.150;14.004;2023-03-25T01:37:12;1.20;;;1.20;;
3259;SDS011;22469;48.150;14.004;2023-03-25T01:39:39;1.57;;;1.47;;
3259;SDS011;22469;48.150;14.004;2023-03-25T01:42:06;2.50;;;1.53;;
3259;SDS011;22469;48.150;14.004;2023-03-25T01:45:22;1.70;;;1.47;;
3259;SDS011;22469;48.150;14.004;2023-03-25T01:47:37;3.37;;;1.10;;
3259;SDS011;22469;48.150;14.004;2023-03-25T01:50:05;3.17;;;1.30;;
3259;SDS011;22469;48.150;14.004;2023-03-25T01:52:33;1.30;;;1.20;;
3259;SDS011;22469;48.150;14.004;2023-03-25T01:55:01;1.40;;;1.30;;
3259;SDS011;22469;48.150;14.004;2023-03-25T01:57:28;2.80;;;1.63;;
3259;SDS011;22469;48.150;14.004;2023-03-25T01:59:57;1.60;;;1.50;;
3259;SDS011;22469;48.150;14.004;2023-03-25T02:02:24;2.70;;;1.70;;
3259;SDS011;22469;48.150;14.004;2023-03-25T02:05:03;1.70;;;1.60;;
3259;SDS011;22469;48.150;14.004;2023-03-25T02:07:45;1.50;;;1.50;;
3259;SDS011;22469;48.150;14.004;2023-03-25T02:10:16;3.17;;;1.67;;
3259;SDS011;22469;48.150;14.004;2023-03-25T02:12:44;2.40;;;1.50;;
3259;SDS011;22469;48.150;14.004;2023-03-25T02:15:13;1.40;;;1.30;;
3259;SDS011;22469;48.150;14.004;2023-03-25T02:29:12;2.50;;;1.20;;
3259;SDS011;22469;48.150;14.004;2023-03-25T02:46:19;1.83;;;1.40;;
3259;SDS011;22469;48.150;14.004;2023-03-25T02:51:35;2.23;;;1.50;;
3259;SDS011;22469;48.150;14.004;2023-03-25T02:54:16;1.80;;;1.70;;
3259;SDS011;22469;48.150;14.004;2023-03-25T02:56:47;5.60;;;1.80;;
3259;SDS011;22469;48.150;14.004;2023-03-25T02:59:17;1.50;;;1.30;;
3259;SDS011;22469;48.150;14.004;2023-03-25T03:01:47;2.10;;;1.70;;
3259;SDS011;22469;48.150;14.004;2023-03-25T03:04:16;1.57;;;1.40;;
3259;SDS011;22469;48.150;14.004;2023-03-25T03:06:42;4.37;;;1.43;;
3259;SDS011;22469;48.150;14.004;2023-03-25T03:09:21;7.07;;;1.80;;
3259;SDS011;22469;48.150;14.004;2023-03-25T03:21:17;1.53;;;1.40;;
3259;SDS011;22469;48.150;14.004;2023-03-25T03:24:06;1.90;;;1.50;;
3259;SDS011;22469;48.150;14.004;2023-03-25T03:29:36;2.87;;;1.43;;
3259;SDS011;22469;48.150;14.004;2023-03-25T03:34:45;1.30;;;1.20;;
3259;SDS011;22469;48.150;14.004;2023-03-25T03:37:27;1.47;;;1.23;;
3259;SDS011;22469;48.150;14.004;2023-03-25T03:40:03;1.77;;;1.00;;
3259;SDS011;22469;48.150;14.004;2023-03-25T03:48:06;1.63;;;1.53;;
3259;SDS011;22469;48.150;14.004;2023-03-25T03:50:46;1.90;;;1.63;;
3259;SDS011;22469;48.150;14.004;2023-03-25T03:53:24;1.40;;;1.30;;
3259;SDS011;22469;48.150;14.004;2023-03-25T03:56:09;1.50;;;1.40;;
3259;SDS011;22469;48.150;14.004;2023-03-25T03:58:44;2.10;;;1.40;;
3259;SDS011;22469;48.150;14.004;2023-03-25T04:04:24;2.13;;;1.30;;
3259;SDS011;22469;48.150;14.004;2023-03-25T04:10:22;2.63;;;1.57;;
3259;SDS011;22469;48.150;14.004;2023-03-25T04:13:01;1.60;;;1.00;;
3259;SDS011;22469;48.150;14.004;2023-03-25T04:15:31;1.30;;;1.20;;
3259;SDS011;22469;48.150;14.004;2023-03-25T04:17:58;1.97;;;1.77;;
3259;SDS011;22469;48.150;14.004;2023-03-25T04:20:27;2.90;;;1.50;;
3259;SDS011;22469;48.150;14.004;2023-03-25T04:23:00;2.13;;;1.43;;
3259;SDS011;22469;48.150;14.004;2023-03-25T04:25:27;2.60;;;1.60;;
3259;SDS011;22469;48.150;14.004;2023-03-25T04:27:57;1.70;;;1.53;;
3259;SDS011;22469;48.150;14.004;2023-03-25T04:30:26;1.43;;;1.33;;
3259;SDS011;22469;48.150;14.004;2023-03-25T04:32:54;1.60;;;1.50;;
3259;SDS011;22469;48.150;14.004;2023-03-25T04:35:22;1.83;;;1.73;;
3259;SDS011;22469;48.150;14.004;2023-03-25T04:37:51;1.53;;;1.43;;
3259;SDS011;22469;48.150;14.004;2023-03-25T04:40:23;7.13;;;1.53;;
3259;SDS011;22469;48.150;14.004;2023-03-25T04:42:51;2.70;;;1.80;;
3259;SDS011;22469;48.150;14.004;2023-03-25T04:45:18;1.53;;;1.10;;
3259;SDS011;22469;48.150;14.004;2023-03-25T04:47:47;2.67;;;1.97;;
3259;SDS011;22469;48.150;14.004;2023-03-25T04:50:24;1.27;;;1.20;;
3259;SDS011;22469;48.150;14.004;2023-03-25T04:52:54;1.43;;;1.33;;
3259;SDS011;22469;48.150;14.004;2023-03-25T04:55:27;2.10;;;1.03;;
3259;SDS011;22469;48.150;14.004;2023-03-25T04:57:55;2.17;;;1.23;;
3259;SDS011;22469;48.150;14.004;2023-03-25T05:00:23;3.37;;;1.63;;
3259;SDS011;22469;48.150;14.004;2023-03-25T05:02:52;1.30;;;1.30;;
3259;SDS011;22469;48.150;14.004;2023-03-25T05:05:22;3.50;;;1.60;;
3259;SDS011;22469;48.150;14.004;2023-03-25T05:07:52;2.60;;;1.47;;
3259;SDS011;22469;48.150;14.004;2023-03-25T05:10:22;1.50;;;1.40;;
3259;SDS011;22469;48.150;14.004;2023-03-25T05:12:56;1.60;;;1.50;;
3259;SDS011;22469;48.150;14.004;2023-03-25T05:15:29;1.50;;;1.40;;
3259;SDS011;22469;48.150;14.004;2023-03-25T05:18:00;1.43;;;1.43;;
3259;SDS011;22469;48.150;14.004;2023-03-25T05:20:28;4.10;;;1.30;;
3259;SDS011;22469;48.150;14.004;2023-03-25T05:22:56;1.47;;;1.37;;
3259;SDS011;22469;48.150;14.004;2023-03-25T05:25:23;3.63;;;1.50;;
3259;SDS011;22469;48.150;14.004;2023-03-25T05:27:50;2.60;;;1.70;;
3259;SDS011;22469;48.150;14.004;2023-03-25T05:30:17;2.20;;;1.77;;
3259;SDS011;22469;48.150;14.004;2023-03-25T05:32:44;2.60;;;1.27;;
3259;SDS011;22469;48.150;14.004;2023-03-25T05:35:21;1.63;;;1.53;;
3259;SDS011;22469;48.150;14.004;2023-03-25T05:37:49;1.90;;;1.30;;
3259;SDS011;22469;48.150;14.004;2023-03-25T05:40:17;2.77;;;1.57;;
3259;SDS011;22469;48.150;14.004;2023-03-25T05:42:44;2.20;;;1.37;;
3259;SDS011;22469;48.150;14.004;2023-03-25T05:45:15;1.13;;;1.13;;
3259;SDS011;22469;48.150;14.004;2023-03-25T05:47:42;1.60;;;1.50;;
3259;SDS011;22469;48.150;14.004;2023-03-25T05:50:10;6.47;;;1.70;;
3259;SDS011;22469;48.150;14.004;2023-03-25T05:52:37;1.70;;;1.60;;
3259;SDS011;22469;48.150;14.004;2023-03-25T05:55:13;2.30;;;1.40;;
3259;SDS011;22469;48.150;14.004;2023-03-25T05:57:46;1.57;;;1.47;;
3259;SDS011;22469;48.150;14.004;2023-03-25T06:00:15;1.33;;;1.00;;
3259;SDS011;22469;48.150;14.004;2023-03-25T06:02:44;1.60;;;1.50;;
3259;SDS011;22469;48.150;14.004;2023-03-25T06:05:14;1.60;;;1.40;;
3259;SDS011;22469;48.150;14.004;2023-03-25T06:07:43;1.27;;;1.17;;
3259;SDS011;22469;48.150;14.004;2023-03-25T06:10:13;2.03;;;1.60;;
3259;SDS011;22469;48.150;14.004;2023-03-25T06:12:43;1.23;;;1.03;;
3259;SDS011;22469;48.150;14.004;2023-03-25T06:15:14;4.57;;;1.83;;
3259;SDS011;22469;48.150;14.004;2023-03-25T06:17:59;1.00;;;1.00;;
3259;SDS011;22469;48.150;14.004;2023-03-25T06:20:26;1.63;;;1.17;;
3259;SDS011;22469;48.150;14.004;2023-03-25T06:22:54;3.77;;;1.53;;
3259;SDS011;22469;48.150;14.004;2023-03-25T06:25:21;1.77;;;1.00;;
3259;SDS011;22469;48.150;14.004;2023-03-25T06:27:49;1.93;;;1.50;;
3259;SDS011;22469;48.150;14.004;2023-03-25T06:30:18;2.20;;;1.00;;
3259;SDS011;22469;48.150;14.004;2023-03-25T06:32:47;1.60;;;1.50;;
3259;SDS011;22469;48.150;14.004;2023-03-25T06:35:17;1.23;;;1.13;;
3259;SDS011;22469;48.150;14.004;2023-03-25T06:37:46;4.47;;;1.40;;
3259;SDS011;22469;48.150;14.004;2023-03-25T06:40:14;1.50;;;1.40;;
3259;SDS011;22469;48.150;14.004;2023-03-25T06:42:42;3.67;;;1.10;;
3259;SDS011;22469;48.150;14.004;2023-03-25T06:45:09;3.10;;;1.30;;
3259;SDS011;22469;48.150;14.004;2023-03-25T06:47:38;1.73;;;1.00;;
3259;SDS011;22469;48.150;14.004;2023-03-25T06:50:05;2.30;;;1.23;;
3259;SDS011;22469;48.150;14.004;2023-03-25T06:52:33;0.90;;;0.90;;
3259;SDS011;22469;48.150;14.004;2023-03-25T06:55:01;3.73;;;2.17;;
3259;SDS011;22469;48.150;14.004;2023-03-25T06:57:28;2.70;;;1.03;;
3259;SDS011;22469;48.150;14.004;2023-03-25T06:59:55;1.60;;;1.00;;
3259;SDS011;22469;48.150;14.004;2023-03-25T07:02:22;2.10;;;1.07;;
3259;SDS011;22469;48.150;14.004;2023-03-25T07:04:49;2.70;;;1.50;;
3259;SDS011;22469;48.150;14.004;2023-03-25T07:07:16;1.37;;;1.23;;
3259;SDS011;22469;48.150;14.004;2023-03-25T07:09:43;1.70;;;1.47;;
3259;SDS011;22469;48.150;14.004;2023-03-25T07:12:10;2.97;;;1.47;;
3259;SDS011;22469;48.150;14.004;2023-03-25T07:14:37;2.03;;;1.37;;
3259;SDS011;22469;48.150;14.004;2023-03-25T07:17:04;1.30;;;1.10;;
3259;SDS011;22469;48.150;14.004;2023-03-25T07:19:31;4.83;;;2.17;;
3259;SDS011;22469;48.150;14.004;2023-03-25T07:21:58;4.17;;;3.07;;
3259;SDS011;22469;48.150;14.004;2023-03-25T07:24:25;3.63;;;3.40;;
3259;SDS011;22469;48.150;14.004;2023-03-25T07:26:53;5.33;;;4.73;;
3259;SDS011;22469;48.150;14.004;2023-03-25T07:29:20;3.43;;;3.13;;
3259;SDS011;22469;48.150;14.004;2023-03-25T07:31:47;2.27;;;2.17;;
3259;SDS011;22469;48.150;14.004;2023-03-25T07:34:14;4.70;;;1.97;;
3259;SDS011;22469;48.150;14.004;2023-03-25T07:36:41;1.60;;;1.30;;
3259;SDS011;22469;48.150;14.004;2023-03-25T07:39:08;1.20;;;1.20;;
3259;SDS011;22469;48.150;14.004;2023-03-25T07:41:35;1.77;;;1.67;;
3259;SDS011;22469;48.150;14.004;2023-03-25T07:44:02;1.73;;;1.63;;
3259;SDS011;22469;48.150;14.004;2023-03-25T07:46:30;1.80;;;1.30;;
3259;SDS011;22469;48.150;14.004;2023-03-25T07:48:57;1.27;;;1.00;;
3259;SDS011;22469;48.150;14.004;2023-03-25T07:51:24;1.77;;;0.90;;
3259;SDS011;22469;48.150;14.004;2023-03-25T07:53:51;2.97;;;1.23;;
3259;SDS011;22469;48.150;14.004;2023-03-25T07:56:18;1.87;;;1.30;;
3259;SDS011;22469;48.150;14.004;2023-03-25T07:58:45;2.20;;;1.07;;
3259;SDS011;22469;48.150;14.004;2023-03-25T08:01:15;1.13;;;1.13;;
3259;SDS011;22469;48.150;14.004;2023-03-25T08:03:42;1.60;;;1.30;;
3259;SDS011;22469;48.150;14.004;2023-03-25T08:06:09;0.93;;;0.83;;
3259;SDS011;22469;48.150;14.004;2023-03-25T08:08:36;1.60;;;1.50;;
3259;SDS011;22469;48.150;14.004;2023-03-25T08:11:03;2.50;;;1.00;;
3259;SDS011;22469;48.150;14.004;2023-03-25T08:13:30;4.20;;;1.10;;
3259;SDS011;22469;48.150;14.004;2023-03-25T08:15:57;3.33;;;1.10;;
3259;SDS011;22469;48.150;14.004;2023-03-25T08:18:24;1.93;;;1.60;;
3259;SDS011;22469;48.150;14.004;2023-03-25T08:20:52;2.10;;;1.63;;
3259;SDS011;22469;48.150;14.004;2023-03-25T08:23:19;1.23;;;1.13;;
3259;SDS011;22469;48.150;14.004;2023-03-25T08:25:48;5.60;;;1.83;;
3259;SDS011;22469;48.150;14.004;2023-03-25T08:28:18;1.27;;;1.20;;
3259;SDS011;22469;48.150;14.004;2023-03-25T08:30:50;2.10;;;1.90;;
3259;SDS011;22469;48.150;14.004;2023-03-25T08:33:21;1.53;;;0.80;;
3259;SDS011;22469;48.150;14.004;2023-03-25T08:36:00;1.00;;;1.00;;
3259;SDS011;22469;48.150;14.004;2023-03-25T08:38:27;1.87;;;1.03;;
3259;SDS011;22469;48.150;14.004;2023-03-25T08:41:00;0.70;;;0.70;;
3259;SDS011;22469;48.150;14.004;2023-03-25T08:43:28;2.50;;;0.87;;
3259;SDS011;22469;48.150;14.004;2023-03-25T08:45:55;2.17;;;2.07;;
3259;SDS011;22469;48.150;14.004;2023-03-25T08:48:22;0.93;;;0.80;;
3259;SDS011;22469;48.150;14.004;2023-03-25T08:50:50;1.33;;;1.17;;
3259;SDS011;22469;48.150;14.004;2023-03-25T08:53:17;2.47;;;1.00;;
3259;SDS011;22469;48.150;14.004;2023-03-25T08:55:44;1.50;;;1.40;;
3259;SDS011;22469;48.150;14.004;2023-03-25T08:58:11;1.13;;;1.07;;
3259;SDS011;22469;48.150;14.004;2023-03-25T09:00:38;2.83;;;1.13;;
3259;SDS011;22469;48.150;14.004;2023-03-25T09:03:05;1.33;;;1.10;;
3259;SDS011;22469;48.150;14.004;2023-03-25T09:05:32;1.00;;;0.87;;
3259;SDS011;22469;48.150;14.004;2023-03-25T09:08:03;0.93;;;0.93;;
3259;SDS011;22469;48.150;14.004;2023-03-25T09:10:31;1.00;;;0.90;;
3259;SDS011;22469;48.150;14.004;2023-03-25T09:13:01;1.50;;;1.00;;
3259;SDS011;22469;48.150;14.004;2023-03-25T09:15:28;0.90;;;0.90;;
3259;SDS011;22469;48.150;14.004;2023-03-25T09:17:56;1.13;;;1.03;;
3259;SDS011;22469;48.150;14.004;2023-03-25T09:20:24;1.60;;;0.90;;
3259;SDS011;22469;48.150;14.004;2023-03-25T09:22:51;2.10;;;1.13;;
3259;SDS011;22469;48.150;14.004;2023-03-25T09:25:18;3.23;;;1.00;;
3259;SDS011;22469;48.150;14.004;2023-03-25T09:27:45;1.40;;;1.20;;
3259;SDS011;22469;48.150;14.004;2023-03-25T09:30:12;1.20;;;0.90;;
3259;SDS011;22469;48.150;14.004;2023-03-25T09:32:41;1.00;;;0.90;;
3259;SDS011;22469;48.150;14.004;2023-03-25T09:35:10;1.13;;;0.90;;
3259;SDS011;22469;48.150;14.004;2023-03-25T09:37:37;0.90;;;0.90;;
3259;SDS011;22469;48.150;14.004;2023-03-25T09:40:04;1.10;;;0.90;;
3259;SDS011;22469;48.150;14.004;2023-03-25T09:42:39;1.27;;;0.80;;
3259;SDS011;22469;48.150;14.004;2023-03-25T09:45:29;1.07;;;1.07;;
3259;SDS011;22469;48.150;14.004;2023-03-25T09:50:48;1.23;;;0.80;;
3259;SDS011;22469;48.150;14.004;2023-03-25T09:56:08;1.33;;;1.00;;
3259;SDS011;22469;48.150;14.004;2023-03-25T10:07:32;1.50;;;0.70;;
3259;SDS011;22469;48.150;14.004;2023-03-25T10:13:06;1.27;;;0.90;;
3259;SDS011;22469;48.150;14.004;2023-03-25T10:24:59;2.30;;;0.90;;
3259;SDS011;22469;48.150;14.004;2023-03-25T10:27:37;0.80;;;0.80;;
3259;SDS011;22469;48.150;14.004;2023-03-25T10:32:37;0.70;;;0.70;;
3259;SDS011;22469;48.150;14.004;2023-03-25T10:35:18;1.10;;;1.00;;
3259;SDS011;22469;48.150;14.004;2023-03-25T10:37:52;0.70;;;0.70;;
3259;SDS011;22469;48.150;14.004;2023-03-25T10:40:32;0.80;;;0.80;;
3259;SDS011;22469;48.150;14.004;2023-03-25T10:45:50;1.30;;;0.70;;
3259;SDS011;22469;48.150;14.004;2023-03-25T10:48:26;0.80;;;0.80;;
3259;SDS011;22469;48.150;14.004;2023-03-25T10:51:02;0.80;;;0.70;;
3259;SDS011;22469;48.150;14.004;2023-03-25T10:53:36;1.00;;;0.77;;
3259;SDS011;22469;48.150;14.004;2023-03-25T10:56:17;0.70;;;0.70;;
3259;SDS011;22469;48.150;14.004;2023-03-25T10:58:52;1.53;;;0.80;;
3259;SDS011;22469;48.150;14.004;2023-03-25T11:01:56;0.77;;;0.63;;
3259;SDS011;22469;48.150;14.004;2023-03-25T11:04:18;0.70;;;0.70;;
3259;SDS011;22469;48.150;14.004;2023-03-25T11:06:50;0.70;;;0.70;;
3259;SDS011;22469;48.150;14.004;2023-03-25T11:09:23;1.60;;;0.80;;
3259;SDS011;22469;48.150;14.004;2023-03-25T11:11:59;1.57;;;0.80;;
3259;SDS011;22469;48.150;14.004;2023-03-25T11:14:30;0.60;;;0.60;;
3259;SDS011;22469;48.150;14.004;2023-03-25T11:17:06;0.73;;;0.73;;
3259;SDS011;22469;48.150;14.004;2023-03-25T11:22:18;0.70;;;0.70;;
3259;SDS011;22469;48.150;14.004;2023-03-25T11:24:55;1.17;;;1.17;;
3259;SDS011;22469;48.150;14.004;2023-03-25T11:27:28;3.43;;;1.30;;
3259;SDS011;22469;48.150;14.004;2023-03-25T11:29:58;0.83;;;0.83;;
3259;SDS011;22469;48.150;14.004;2023-03-25T11:32:39;0.80;;;0.80;;
3259;SDS011;22469;48.150;14.004;2023-03-25T11:35:14;2.10;;;0.70;;
3259;SDS011;22469;48.150;14.004;2023-03-25T11:37:55;1.17;;;0.77;;
3259;SDS011;22469;48.150;14.004;2023-03-25T11:40:25;0.80;;;0.80;;
3259;SDS011;22469;48.150;14.004;2023-03-25T11:42:55;0.73;;;0.73;;
3259;SDS011;22469;48.150;14.004;2023-03-25T11:45:34;3.73;;;0.70;;
3259;SDS011;22469;48.150;14.004;2023-03-25T11:48:11;0.87;;;0.80;;
3259;SDS011;22469;48.150;14.004;2023-03-25T11:50:45;0.67;;;0.67;;
3259;SDS011;22469;48.150;14.004;2023-03-25T11:53:18;0.80;;;0.80;;
3259;SDS011;22469;48.150;14.004;2023-03-25T11:55:51;1.00;;;0.80;;
3259;SDS011;22469;48.150;14.004;2023-03-25T11:58:25;0.73;;;0.73;;
3259;SDS011;22469;48.150;14.004;2023-03-25T12:01:00;0.90;;;0.60;;
3259;SDS011;22469;48.150;14.004;2023-03-25T12:03:33;0.63;;;0.63;;
3259;SDS011;22469;48.150;14.004;2023-03-25T12:14:36;1.27;;;0.80;;
3259;SDS011;22469;48.150;14.004;2023-03-25T12:22:31;1.13;;;0.70;;
3259;SDS011;22469;48.150;14.004;2023-03-25T12:33:39;0.60;;;0.60;;
3259;SDS011;22469;48.150;14.004;2023-03-25T12:39:43;0.80;;;0.80;;
3259;SDS011;22469;48.150;14.004;2023-03-25T13:08:44;1.27;;;0.80;;
3259;SDS011;22469;48.150;14.004;2023-03-25T13:11:40;2.00;;;0.80;;
3259;SDS011;22469;48.150;14.004;2023-03-25T13:14:22;3.67;;;3.40;;
3259;SDS011;22469;48.150;14.004;2023-03-25T13:16:56;3.33;;;0.80;;
3259;SDS011;22469;48.150;14.004;2023-03-25T13:19:29;0.70;;;0.70;;
3259;SDS011;22469;48.150;14.004;2023-03-25T13:22:15;0.80;;;0.80;;
3259;SDS011;22469;48.150;14.004;2023-03-25T13:24:56;0.80;;;0.80;;
3259;SDS011;22469;48.150;14.004;2023-03-25T13:27:34;1.10;;;1.00;;
3259;SDS011;22469;48.150;14.004;2023-03-25T13:30:11;2.10;;;0.80;;
3259;SDS011;22469;48.150;14.004;2023-03-25T13:33:00;1.00;;;1.00;;
3259;SDS011;22469;48.150;14.004;2023-03-25T13:35:44;1.40;;;1.40;;
3259;SDS011;22469;48.150;14.004;2023-03-25T13:38:26;7.10;;;2.30;;
3259;SDS011;22469;48.150;14.004;2023-03-25T13:41:06;1.10;;;1.03;;
3259;SDS011;22469;48.150;14.004;2023-03-25T13:46:53;1.10;;;0.90;;
3259;SDS011;22469;48.150;14.004;2023-03-25T13:49:40;1.90;;;1.13;;
3259;SDS011;22469;48.150;14.004;2023-03-25T13:52:16;1.63;;;1.00;;
3259;SDS011;22469;48.150;14.004;2023-03-25T14:02:56;1.27;;;0.70;;
3259;SDS011;22469;48.150;14.004;2023-03-25T14:12:00;1.27;;;0.90;;
3259;SDS011;22469;48.150;14.004;2023-03-25T14:14:49;1.63;;;0.90;;
3259;SDS011;22469;48.150;14.004;2023-03-25T14:17:29;9.50;;;7.40;;
3259;SDS011;22469;48.150;14.004;2023-03-25T14:20:01;0.90;;;0.90;;
3259;SDS011;22469;48.150;14.004;2023-03-25T14:22:35;2.17;;;2.00;;
3259;SDS011;22469;48.150;14.004;2023-03-25T14:25:31;0.90;;;0.90;;
3259;SDS011;22469;48.150;14.004;2023-03-25T14:28:06;0.77;;;0.77;;
3259;SDS011;22469;48.150;14.004;2023-03-25T14:30:43;0.70;;;0.70;;
3259;SDS011;22469;48.150;14.004;2023-03-25T14:36:29;1.07;;;0.80;;
3259;SDS011;22469;48.150;14.004;2023-03-25T14:39:08;1.53;;;1.50;;
3259;SDS011;22469;48.150;14.004;2023-03-25T14:44:46;0.80;;;0.70;;
3259;SDS011;22469;48.150;14.004;2023-03-25T14:47:35;1.80;;;0.70;;
3259;SDS011;22469;48.150;14.004;2023-03-25T14:50:05;0.67;;;0.67;;
3259;SDS011;22469;48.150;14.004;2023-03-25T14:52:48;1.57;;;1.00;;
3259;SDS011;22469;48.150;14.004;2023-03-25T14:55:19;1.00;;;0.60;;
3259;SDS011;22469;48.150;14.004;2023-03-25T14:57:57;0.87;;;0.87;;
3259;SDS011;22469;48.150;14.004;2023-03-25T15:00:29;0.70;;;0.70;;
3259;SDS011;22469;48.150;14.004;2023-03-25T15:03:01;0.80;;;0.80;;
3259;SDS011;22469;48.150;14.004;2023-03-25T15:05:36;0.60;;;0.60;;
3259;SDS011;22469;48.150;14.004;2023-03-25T15:13:16;0.60;;;0.60;;
3259;SDS011;22469;48.150;14.004;2023-03-25T15:16:01;0.90;;;0.70;;
3259;SDS011;22469;48.150;14.004;2023-03-25T15:21:02;0.60;;;0.60;;
3259;SDS011;22469;48.150;14.004;2023-03-25T15:23:45;1.37;;;0.70;;
3259;SDS011;22469;48.150;14.004;2023-03-25T15:58:56;1.80;;;1.20;;
3259;SDS011;22469;48.150;14.004;2023-03-25T16:01:34;0.87;;;0.70;;
3259;SDS011;22469;48.150;14.004;2023-03-25T16:04:23;0.97;;;0.97;;
3259;SDS011;22469;48.150;14.004;2023-03-25T16:07:17;0.60;;;0.60;;
3259;SDS011;22469;48.150;14.004;2023-03-25T16:09:49;0.73;;;0.73;;
3259;SDS011;22469;48.150;14.004;2023-03-25T16:12:21;0.70;;;0.70;;
3259;SDS011;22469;48.150;14.004;2023-03-25T16:14:50;2.30;;;0.90;;
3259;SDS011;22469;48.150;14.004;2023-03-25T16:17:19;0.80;;;0.80;;
3259;SDS011;22469;48.150;14.004;2023-03-25T16:19:54;1.95;;;0.85;;
3259;SDS011;22469;48.150;14.004;2023-03-25T16:22:57;1.33;;;0.80;;
3259;SDS011;22469;48.150;14.004;2023-03-25T16:25:20;1.13;;;0.87;;
3259;SDS011;22469;48.150;14.004;2023-03-25T16:27:56;0.97;;;0.97;;
3259;SDS011;22469;48.150;14.004;2023-03-25T16:30:37;2.03;;;1.53;;
3259;SDS011;22469;48.150;14.004;2023-03-25T16:35:43;1.93;;;1.83;;
3259;SDS011;22469;48.150;14.004;2023-03-25T16:38:27;1.70;;;1.00;;
3259;SDS011;22469;48.150;14.004;2023-03-25T16:41:00;0.73;;;0.73;;
3259;SDS011;22469;48.150;14.004;2023-03-25T16:43:30;1.00;;;1.00;;
3259;SDS011;22469;48.150;14.004;2023-03-25T16:46:00;0.80;;;0.80;;
3259;SDS011;22469;48.150;14.004;2023-03-25T16:48:31;0.90;;;0.90;;
3259;SDS011;22469;48.150;14.004;2023-03-25T16:51:09;6.80;;;4.13;;
3259;SDS011;22469;48.150;14.004;2023-03-25T16:53:42;2.30;;;1.53;;
3259;SDS011;22469;48.150;14.004;2023-03-25T17:01:43;3.70;;;2.00;;
3259;SDS011;22469;48.150;14.004;2023-03-25T17:04:23;3.03;;;1.60;;
3259;SDS011;22469;48.150;14.004;2023-03-25T17:07:09;1.63;;;1.53;;
3259;SDS011;22469;48.150;14.004;2023-03-25T17:09:40;11.30;;;2.20;;
3259;SDS011;22469;48.150;14.004;2023-03-25T17:12:15;4.47;;;2.87;;
3259;SDS011;22469;48.150;14.004;2023-03-25T17:14:45;1.30;;;1.20;;
3259;SDS011;22469;48.150;14.004;2023-03-25T17:20:16;1.67;;;1.57;;
3259;SDS011;22469;48.150;14.004;2023-03-25T17:28:25;1.37;;;1.27;;
3259;SDS011;22469;48.150;14.004;2023-03-25T17:34:03;1.33;;;1.33;;
3259;SDS011;22469;48.150;14.004;2023-03-25T17:36:34;0.93;;;0.93;;
3259;SDS011;22469;48.150;14.004;2023-03-25T17:41:49;33.83;;;10.67;;
3259;SDS011;22469;48.150;14.004;2023-03-25T17:44:35;3.57;;;1.73;;
3259;SDS011;22469;48.150;14.004;2023-03-25T17:47:16;2.00;;;1.50;;
3259;SDS011;22469;48.150;14.004;2023-03-25T17:49:45;26.10;;;8.30;;
3259;SDS011;22469;48.150;14.004;2023-03-25T17:52:13;2.73;;;2.03;;
3259;SDS011;22469;48.150;14.004;2023-03-25T17:54:40;6.20;;;2.47;;
3259;SDS011;22469;48.150;14.004;2023-03-25T17:57:09;33.57;;;10.47;;
3259;SDS011;22469;48.150;14.004;2023-03-25T17:59:42;4.43;;;4.03;;
3259;SDS011;22469;48.150;14.004;2023-03-25T18:02:14;4.10;;;3.70;;
3259;SDS011;22469;48.150;14.004;2023-03-25T18:04:42;4.30;;;3.17;;
3259;SDS011;22469;48.150;14.004;2023-03-25T18:07:10;2.70;;;2.50;;
3259;SDS011;22469;48.150;14.004;2023-03-25T18:09:37;1.87;;;1.77;;
3259;SDS011;22469;48.150;14.004;2023-03-25T18:12:05;1.27;;;1.10;;
3259;SDS011;22469;48.150;14.004;2023-03-25T18:14:32;2.70;;;1.13;;
3259;SDS011;22469;48.150;14.004;2023-03-25T18:17:00;1.13;;;1.13;;
3259;SDS011;22469;48.150;14.004;2023-03-25T18:19:29;2.73;;;2.37;;
3259;SDS011;22469;48.150;14.004;2023-03-25T18:21:57;2.77;;;1.30;;
3259;SDS011;22469;48.150;14.004;2023-03-25T18:24:39;2.83;;;2.60;;
3259;SDS011;22469;48.150;14.004;2023-03-25T18:27:08;11.07;;;7.57;;
3259;SDS011;22469;48.150;14.004;2023-03-25T18:29:36;5.90;;;5.30;;
3259;SDS011;22469;48.150;14.004;2023-03-25T18:32:05;41.70;;;20.13;;
3259;SDS011;22469;48.150;14.004;2023-03-25T18:34:32;24.83;;;10.80;;
3259;SDS011;22469;48.150;14.004;2023-03-25T18:36:59;28.43;;;15.00;;
3259;SDS011;22469;48.150;14.004;2023-03-25T18:39:27;27.20;;;13.60;;
3259;SDS011;22469;48.150;14.004;2023-03-25T18:41:57;33.23;;;20.20;;
3259;SDS011;22469;48.150;14.004;2023-03-25T18:44:24;12.77;;;7.47;;
3259;SDS011;22469;48.150;14.004;2023-03-25T18:46:53;23.10;;;12.70;;
3259;SDS011;22469;48.150;14.004;2023-03-25T18:49:20;41.07;;;21.73;;
3259;SDS011;22469;48.150;14.004;2023-03-25T18:51:48;8.87;;;6.47;;
3259;SDS011;22469;48.150;14.004;2023-03-25T18:54:15;25.43;;;12.90;;
3259;SDS011;22469;48.150;14.004;2023-03-25T18:56:44;8.83;;;5.40;;
3259;SDS011;22469;48.150;14.004;2023-03-25T18:59:14;3.70;;;2.83;;
3259;SDS011;22469;48.150;14.004;2023-03-25T19:01:47;2.03;;;1.93;;
3259;SDS011;22469;48.150;14.004;2023-03-25T19:04:15;2.63;;;1.33;;